Time;durP1;ratioP1;P1;durP2;ratioP2;P2;SDS_P1;SDS_P2;PMS_P1;PMS_P2;Temp;Humidity;BMP_temperature;BMP_pressure;BME280_temperature;BME280_humidity;BME280_pressure;Samples;Min_cycle;Max_cycle;Signal;HPM_P1;HPM_P2
2022/06/09 00:00:10;;;;;;;5.90;1.73;;;;;;;;;;4900588;29;20051;-81
2022/06/09 00:02:38;;;;;;;6.30;1.50;;;;;;;;;;4901205;29;20032;-81
2022/06/09 00:05:05;;;;;;;15.00;1.85;;;;;;;;;;4899171;29;20019;-81
2022/06/09 00:07:31;;;;;;;6.57;1.85;;;;;;;;;;4898423;29;20037;-82
2022/06/09 00:10:00;;;;;;;12.55;2.55;;;;;;;;;;4901883;29;20045;-81
2022/06/09 00:12:27;;;;;;;12.40;2.17;;;;;;;;;;4900424;29;20028;-81
2022/06/09 00:14:56;;;;;;;9.52;2.17;;;;;;;;;;4900292;29;20079;-81
2022/06/09 00:17:23;;;;;;;10.55;2.25;;;;;;;;;;4900131;29;20033;-81
2022/06/09 00:19:49;;;;;;;7.85;2.35;;;;;;;;;;4897148;29;20032;-81
2022/06/09 00:22:16;;;;;;;6.80;2.10;;;;;;;;;;4900885;29;20038;-82
2022/06/09 00:24:42;;;;;;;10.07;2.08;;;;;;;;;;4900761;29;20033;-81
2022/06/09 00:27:09;;;;;;;12.35;2.63;;;;;;;;;;4900416;29;20055;-82
2022/06/09 00:29:36;;;;;;;9.13;2.22;;;;;;;;;;4915097;29;20031;-81
2022/06/09 00:32:02;;;;;;;10.43;2.20;;;;;;;;;;4898621;29;20036;-81
2022/06/09 00:34:28;;;;;;;11.75;2.20;;;;;;;;;;4898510;29;20389;-81
2022/06/09 00:36:55;;;;;;;8.73;2.17;;;;;;;;;;4900940;29;20029;-80
2022/06/09 00:39:21;;;;;;;6.85;1.80;;;;;;;;;;4900190;29;20056;-81
2022/06/09 00:41:47;;;;;;;8.13;2.30;;;;;;;;;;4900243;29;20040;-81
2022/06/09 00:44:21;;;;;;;10.18;2.15;;;;;;;;;;4900055;29;20501;-81
2022/06/09 00:46:50;;;;;;;16.40;2.20;;;;;;;;;;4881866;29;20032;-81
2022/06/09 00:49:34;;;;;;;9.00;1.73;;;;;;;;;;4899866;29;20035;-81
2022/06/09 00:52:02;;;;;;;10.25;2.15;;;;;;;;;;4888585;29;20498;-82
2022/06/09 00:54:28;;;;;;;9.43;2.08;;;;;;;;;;4898665;29;20036;-82
2022/06/09 00:57:03;;;;;;;10.38;2.38;;;;;;;;;;4899724;29;20405;-81
2022/06/09 00:59:30;;;;;;;11.45;2.30;;;;;;;;;;4900010;29;20388;-83
2022/06/09 01:01:59;;;;;;;11.57;2.30;;;;;;;;;;4897508;29;20037;-81
2022/06/09 01:04:26;;;;;;;9.10;2.10;;;;;;;;;;4898591;29;20036;-82
2022/06/09 01:06:55;;;;;;;10.05;2.33;;;;;;;;;;4900794;29;20040;-81
2022/06/09 01:09:26;;;;;;;11.73;2.40;;;;;;;;;;4897714;29;20032;-81
2022/06/09 01:11:52;;;;;;;;;;;;;;;;;;4900079;29;20502;-82
2022/06/09 01:14:21;;;;;;;10.32;2.15;;;;;;;;;;4899962;29;19919;-82
2022/06/09 01:16:48;;;;;;;11.07;2.15;;;;;;;;;;4880996;29;20031;-82
2022/06/09 01:19:15;;;;;;;9.75;1.90;;;;;;;;;;4900212;29;20054;-81
2022/06/09 01:21:44;;;;;;;12.10;2.15;;;;;;;;;;4900013;29;20409;-81
2022/06/09 01:24:30;;;;;;;10.65;2.22;;;;;;;;;;4899698;29;20028;-81
2022/06/09 01:27:14;;;;;;;9.82;1.98;;;;;;;;;;4899283;29;20039;-82
2022/06/09 01:29:40;;;;;;;13.07;2.08;;;;;;;;;;4899441;29;20031;-82
2022/06/09 01:32:11;;;;;;;12.70;2.10;;;;;;;;;;4898187;29;20040;-80
2022/06/09 01:34:43;;;;;;;10.63;1.80;;;;;;;;;;4896198;29;20032;-81
2022/06/09 01:37:13;;;;;;;9.73;2.05;;;;;;;;;;4900119;29;20414;-81
2022/06/09 01:39:50;;;;;;;9.40;2.03;;;;;;;;;;4899003;29;20074;-81
2022/06/09 01:42:24;;;;;;;14.80;2.53;;;;;;;;;;4914094;29;20069;-81
2022/06/09 01:44:52;;;;;;;11.85;1.98;;;;;;;;;;4899445;29;20032;-80
2022/06/09 01:47:20;;;;;;;11.25;2.10;;;;;;;;;;4899555;29;20379;-81
2022/06/09 01:49:47;;;;;;;9.43;2.35;;;;;;;;;;4880939;29;20509;-81
2022/06/09 01:52:14;;;;;;;11.07;2.30;;;;;;;;;;4894212;29;20486;-81
2022/06/09 01:54:41;;;;;;;10.48;2.22;;;;;;;;;;4899099;29;20025;-82
2022/06/09 01:57:10;;;;;;;10.43;2.10;;;;;;;;;;4898989;29;20059;-82
2022/06/09 01:59:39;;;;;;;17.17;2.38;;;;;;;;;;4899456;29;20046;-81
2022/06/09 02:02:19;;;;;;;14.43;2.45;;;;;;;;;;4897801;29;20031;-82
2022/06/09 02:04:48;;;;;;;13.50;1.88;;;;;;;;;;4880489;29;20033;-80
2022/06/09 02:07:15;;;;;;;10.30;2.30;;;;;;;;;;4907324;29;20401;-81
2022/06/09 02:09:42;;;;;;;14.68;2.60;;;;;;;;;;4899273;29;20052;-82
2022/06/09 02:12:10;;;;;;;12.35;2.03;;;;;;;;;;4899295;29;20037;-81
2022/06/09 02:14:37;;;;;;;11.82;2.60;;;;;;;;;;4899774;29;20028;-81
2022/06/09 02:17:06;;;;;;;11.38;2.42;;;;;;;;;;4897489;29;20032;-81
2022/06/09 02:19:32;;;;;;;11.13;2.20;;;;;;;;;;4896638;29;20029;-82
2022/06/09 02:21:59;;;;;;;11.40;2.03;;;;;;;;;;4899935;29;20492;-81
2022/06/09 02:24:27;;;;;;;9.07;2.13;;;;;;;;;;4898846;29;20412;-81
2022/06/09 02:26:53;;;;;;;9.73;2.15;;;;;;;;;;4899525;29;20028;-81
2022/06/09 02:29:19;;;;;;;12.57;2.40;;;;;;;;;;4898945;29;20024;-81
2022/06/09 02:31:47;;;;;;;10.65;2.55;;;;;;;;;;4893438;29;20029;-82
2022/06/09 02:34:13;;;;;;;12.45;2.38;;;;;;;;;;4906563;29;20506;-81
2022/06/09 02:36:40;;;;;;;13.15;2.33;;;;;;;;;;4899654;29;20035;-82
2022/06/09 02:39:06;;;;;;;12.45;2.55;;;;;;;;;;4899719;29;20565;-81
2022/06/09 02:41:33;;;;;;;11.40;2.78;;;;;;;;;;4902456;29;20032;-81
2022/06/09 02:44:00;;;;;;;14.32;2.08;;;;;;;;;;4899932;29;20047;-81
2022/06/09 02:46:26;;;;;;;18.23;2.30;;;;;;;;;;4900838;29;20536;-81
2022/06/09 02:48:53;;;;;;;10.88;2.00;;;;;;;;;;4902961;29;20028;-82
2022/06/09 02:51:25;;;;;;;12.10;2.30;;;;;;;;;;4896856;29;20021;-81
2022/06/09 02:53:53;;;;;;;13.40;2.40;;;;;;;;;;4895856;29;20040;-81
2022/06/09 02:56:19;;;;;;;14.32;2.40;;;;;;;;;;4902198;29;20032;-80
2022/06/09 02:58:46;;;;;;;11.63;1.88;;;;;;;;;;4883160;29;20037;-82
2022/06/09 03:01:12;;;;;;;6.35;1.88;;;;;;;;;;4902850;29;20040;-81
2022/06/09 03:03:38;;;;;;;11.02;2.10;;;;;;;;;;4902241;29;20036;-81
2022/06/09 03:06:05;;;;;;;11.02;1.67;;;;;;;;;;4902315;29;20043;-81
2022/06/09 03:08:32;;;;;;;9.73;1.98;;;;;;;;;;4901814;29;20028;-81
2022/06/09 03:10:58;;;;;;;10.20;1.90;;;;;;;;;;4899643;29;20036;-81
2022/06/09 03:13:25;;;;;;;20.70;2.42;;;;;;;;;;4900570;29;20402;-81
2022/06/09 03:15:51;;;;;;;15.10;2.30;;;;;;;;;;4902502;29;20418;-81
2022/06/09 03:18:19;;;;;;;8.50;1.80;;;;;;;;;;4902229;29;20056;-81
2022/06/09 03:20:46;;;;;;;10.60;1.80;;;;;;;;;;4901803;29;20048;-81
2022/06/09 03:23:12;;;;;;;12.73;2.08;;;;;;;;;;4900786;29;20509;-81
2022/06/09 03:25:38;;;;;;;10.88;2.00;;;;;;;;;;4897399;29;20056;-81
2022/06/09 03:28:05;;;;;;;10.27;1.85;;;;;;;;;;4902540;29;20113;-81
2022/06/09 03:30:32;;;;;;;22.75;3.03;;;;;;;;;;4901762;29;20079;-80
2022/06/09 03:32:59;;;;;;;10.73;1.73;;;;;;;;;;4901603;29;20040;-81
2022/06/09 03:35:25;;;;;;;12.95;2.05;;;;;;;;;;4901427;29;20039;-81
2022/06/09 03:37:52;;;;;;;14.13;2.28;;;;;;;;;;4898075;29;20051;-81
2022/06/09 03:40:19;;;;;;;12.70;1.98;;;;;;;;;;4901009;29;20064;-81
2022/06/09 03:42:46;;;;;;;8.68;2.00;;;;;;;;;;4901595;29;20031;-81
2022/06/09 03:45:12;;;;;;;12.80;2.08;;;;;;;;;;4901730;29;20035;-81
2022/06/09 03:47:38;;;;;;;14.00;1.92;;;;;;;;;;4901485;29;20083;-81
2022/06/09 03:50:07;;;;;;;9.25;2.05;;;;;;;;;;4898975;29;20397;-81
2022/06/09 03:52:34;;;;;;;12.55;1.85;;;;;;;;;;4885647;29;20036;-81
2022/06/09 03:55:00;;;;;;;16.33;2.33;;;;;;;;;;4901878;29;20039;-81
2022/06/09 03:57:26;;;;;;;10.00;1.77;;;;;;;;;;4901268;29;20111;-81
2022/06/09 03:59:52;;;;;;;10.50;1.67;;;;;;;;;;4901165;29;20494;-81
2022/06/09 04:02:19;;;;;;;13.30;1.92;;;;;;;;;;4901049;29;20038;-81
2022/06/09 04:04:45;;;;;;;12.13;1.58;;;;;;;;;;4896747;29;20567;-81
2022/06/09 04:07:12;;;;;;;14.82;1.95;;;;;;;;;;4901720;29;20044;-81
2022/06/09 04:09:38;;;;;;;8.43;1.92;;;;;;;;;;4900975;29;20533;-81
2022/06/09 04:12:05;;;;;;;8.43;1.60;;;;;;;;;;4901110;29;20039;-81
2022/06/09 04:14:31;;;;;;;13.55;1.67;;;;;;;;;;4900881;29;20035;-81
2022/06/09 04:16:57;;;;;;;11.00;1.73;;;;;;;;;;4898080;29;20029;-81
2022/06/09 04:19:24;;;;;;;13.15;2.10;;;;;;;;;;4899460;29;20024;-81
2022/06/09 04:21:51;;;;;;;11.32;1.85;;;;;;;;;;4900455;29;20049;-81
2022/06/09 04:24:17;;;;;;;14.57;2.10;;;;;;;;;;4915252;29;20032;-81
2022/06/09 04:26:44;;;;;;;12.52;1.83;;;;;;;;;;4900899;29;20032;-81
2022/06/09 04:29:11;;;;;;;7.68;1.42;;;;;;;;;;4899705;29;20020;-80
2022/06/09 04:31:38;;;;;;;14.60;1.85;;;;;;;;;;4897393;29;20024;-81
2022/06/09 04:34:04;;;;;;;12.10;1.70;;;;;;;;;;4900691;29;20083;-81
2022/06/09 04:36:31;;;;;;;8.73;1.73;;;;;;;;;;4900578;29;20025;-81
2022/06/09 04:38:57;;;;;;;7.60;1.60;;;;;;;;;;4898959;29;20060;-81
2022/06/09 04:41:24;;;;;;;10.75;1.50;;;;;;;;;;4900325;29;20028;-81
2022/06/09 04:43:50;;;;;;;8.73;1.92;;;;;;;;;;4896593;29;20028;-81
2022/06/09 04:46:20;;;;;;;9.00;1.73;;;;;;;;;;4900489;29;20054;-81
2022/06/09 04:48:47;;;;;;;11.07;1.90;;;;;;;;;;4914669;29;20075;-81
2022/06/09 04:51:16;;;;;;;9.57;1.58;;;;;;;;;;4895750;29;20033;-80
2022/06/09 04:53:42;;;;;;;11.13;2.13;;;;;;;;;;4892871;29;20025;-80
2022/06/09 04:56:09;;;;;;;13.90;2.00;;;;;;;;;;4898919;29;20116;-81
2022/06/09 04:58:39;;;;;;;8.02;1.30;;;;;;;;;;4897389;29;20411;-81
2022/06/09 05:01:06;;;;;;;11.00;1.70;;;;;;;;;;4900781;29;20045;-81
2022/06/09 05:03:33;;;;;;;7.47;1.63;;;;;;;;;;4899467;29;20087;-80
2022/06/09 05:05:59;;;;;;;7.93;1.40;;;;;;;;;;4900128;29;20401;-81
2022/06/09 05:08:25;;;;;;;11.63;1.60;;;;;;;;;;4899996;29;20501;-81
2022/06/09 05:10:52;;;;;;;10.30;1.70;;;;;;;;;;4896226;29;20802;-80
2022/06/09 05:13:18;;;;;;;10.13;1.88;;;;;;;;;;4899944;29;20037;-80
2022/06/09 05:15:55;;;;;;;6.78;1.77;;;;;;;;;;4900138;29;20036;-80
2022/06/09 05:18:22;;;;;;;9.25;1.70;;;;;;;;;;4899300;29;20035;-80
2022/06/09 05:20:50;;;;;;;10.25;1.85;;;;;;;;;;4899500;29;20052;-81
2022/06/09 05:23:18;;;;;;;9.35;2.00;;;;;;;;;;4899454;29;20017;-81
2022/06/09 05:25:45;;;;;;;6.78;1.52;;;;;;;;;;4895883;29;20044;-81
2022/06/09 05:28:12;;;;;;;14.77;2.25;;;;;;;;;;4900189;29;20021;-80
2022/06/09 05:30:38;;;;;;;8.30;1.85;;;;;;;;;;4902622;29;20035;-81
2022/06/09 05:33:04;;;;;;;7.97;1.63;;;;;;;;;;4904267;29;20497;-82
2022/06/09 05:35:31;;;;;;;9.88;1.80;;;;;;;;;;4899597;29;20493;-81
2022/06/09 05:46:15;;;;;;;9.55;1.90;;;;;;;;;;4899815;29;20039;-81
2022/06/09 05:48:42;;;;;;;12.48;2.50;;;;;;;;;;4914052;29;20032;-81
2022/06/09 05:51:09;;;;;;;10.20;1.85;;;;;;;;;;4895238;29;20029;-81
2022/06/09 05:53:36;;;;;;;10.73;1.80;;;;;;;;;;4890693;29;20016;-81
2022/06/09 05:56:03;;;;;;;8.20;1.48;;;;;;;;;;4896962;29;20055;-80
2022/06/09 05:58:29;;;;;;;10.43;1.73;;;;;;;;;;4897206;29;20035;-81
2022/06/09 06:00:56;;;;;;;7.47;1.38;;;;;;;;;;4899694;29;20058;-81
2022/06/09 06:03:22;;;;;;;9.98;1.73;;;;;;;;;;4899398;29;20025;-81
2022/06/09 06:08:33;;;;;;;10.75;2.25;;;;;;;;;;4899453;29;20024;-82
2022/06/09 06:11:00;;;;;;;12.02;2.00;;;;;;;;;;4897043;29;20028;-80
2022/06/09 06:13:27;;;;;;;7.78;1.40;;;;;;;;;;4897704;29;20025;-81
2022/06/09 06:15:53;;;;;;;5.47;1.10;;;;;;;;;;4903111;29;20437;-81
2022/06/09 06:18:19;;;;;;;6.55;1.33;;;;;;;;;;4897717;29;20036;-87
2022/06/09 06:20:46;;;;;;;9.27;1.48;;;;;;;;;;4902738;29;20044;-89
2022/06/09 06:23:12;;;;;;;6.45;1.70;;;;;;;;;;4901938;29;20058;-87
2022/06/09 06:25:38;;;;;;;5.60;1.33;;;;;;;;;;4898464;29;20036;-87
2022/06/09 06:28:05;;;;;;;7.90;1.50;;;;;;;;;;4902483;29;20032;-88
2022/06/09 06:30:31;;;;;;;9.00;1.40;;;;;;;;;;4897876;29;20036;-86
2022/06/09 06:32:58;;;;;;;6.72;1.63;;;;;;;;;;4899734;29;20029;-85
2022/06/09 06:35:24;;;;;;;16.27;1.70;;;;;;;;;;4898811;29;20047;-86
2022/06/09 06:37:50;;;;;;;12.68;2.38;;;;;;;;;;4899040;29;20033;-86
2022/06/09 06:40:17;;;;;;;12.63;1.65;;;;;;;;;;4901441;29;20053;-86
2022/06/09 06:42:44;;;;;;;8.88;1.60;;;;;;;;;;4910927;29;20046;-87
2022/06/09 06:45:11;;;;;;;6.97;1.90;;;;;;;;;;4905526;29;20035;-86
2022/06/09 06:47:39;;;;;;;8.68;1.42;;;;;;;;;;4901888;29;20036;-87
2022/06/09 06:50:06;;;;;;;8.05;1.58;;;;;;;;;;4897798;29;20512;-85
2022/06/09 06:52:32;;;;;;;10.88;1.60;;;;;;;;;;4899006;29;20028;-85
2022/06/09 06:54:58;;;;;;;9.93;1.50;;;;;;;;;;4899325;29;20049;-87
2022/06/09 06:57:25;;;;;;;7.78;1.88;;;;;;;;;;4901388;29;20033;-87
2022/06/09 06:59:51;;;;;;;15.07;2.25;;;;;;;;;;4901198;29;20029;-85
2022/06/09 07:02:18;;;;;;;7.32;1.40;;;;;;;;;;4898207;29;20040;-87
2022/06/09 07:04:45;;;;;;;7.32;1.48;;;;;;;;;;4887754;29;20686;-87
2022/06/09 07:07:11;;;;;;;6.63;1.70;;;;;;;;;;4896986;29;20038;-86
2022/06/09 07:09:38;;;;;;;7.65;1.65;;;;;;;;;;4900921;29;20047;-86
2022/06/09 07:12:05;;;;;;;7.15;1.48;;;;;;;;;;4899699;29;20037;-86
2022/06/09 07:14:33;;;;;;;9.02;1.83;;;;;;;;;;4900154;29;20066;-88
2022/06/09 07:17:00;;;;;;;6.25;1.40;;;;;;;;;;4898638;29;20021;-87
2022/06/09 07:19:29;;;;;;;9.77;1.45;;;;;;;;;;4899639;29;20028;-86
2022/06/09 07:21:56;;;;;;;7.43;1.30;;;;;;;;;;4901743;29;20041;-87
2022/06/09 07:24:22;;;;;;;8.10;1.30;;;;;;;;;;4900387;29;20084;-88
2022/06/09 07:26:49;;;;;;;9.35;1.55;;;;;;;;;;4900703;29;20063;-88
2022/06/09 07:29:16;;;;;;;6.47;1.30;;;;;;;;;;4900430;29;20024;-87
2022/06/09 07:31:43;;;;;;;5.25;1.20;;;;;;;;;;4896539;29;20765;-88
2022/06/09 07:34:09;;;;;;;5.88;1.38;;;;;;;;;;4910353;29;20404;-86
2022/06/09 07:36:35;;;;;;;5.97;1.40;;;;;;;;;;4900979;29;20036;-85
2022/06/09 07:39:02;;;;;;;10.43;1.83;;;;;;;;;;4900798;29;20059;-86
2022/06/09 07:41:28;;;;;;;5.90;1.35;;;;;;;;;;4900969;29;20050;-87
2022/06/09 07:43:55;;;;;;;8.23;1.50;;;;;;;;;;4898159;29;20017;-87
2022/06/09 07:46:21;;;;;;;6.40;1.27;;;;;;;;;;4899698;29;20399;-85
2022/06/09 07:48:48;;;;;;;6.25;1.30;;;;;;;;;;4900903;29;20478;-85
2022/06/09 07:51:14;;;;;;;4.45;1.08;;;;;;;;;;4906051;29;20036;-86
2022/06/09 07:53:41;;;;;;;5.45;1.23;;;;;;;;;;4904203;29;20032;-86
2022/06/09 07:56:07;;;;;;;7.57;1.40;;;;;;;;;;4889981;29;20044;-88
2022/06/09 07:58:33;;;;;;;5.18;1.25;;;;;;;;;;4895346;29;20028;-88
2022/06/09 08:01:00;;;;;;;5.63;1.33;;;;;;;;;;4900752;29;20045;-88
2022/06/09 08:03:27;;;;;;;9.88;1.80;;;;;;;;;;4919278;29;20083;-88
2022/06/09 08:05:54;;;;;;;5.15;1.27;;;;;;;;;;4901576;29;20037;-84
2022/06/09 08:08:21;;;;;;;5.95;1.33;;;;;;;;;;4899087;29;20032;-87
2022/06/09 08:10:48;;;;;;;7.28;1.38;;;;;;;;;;4909083;29;20031;-87
2022/06/09 08:13:15;;;;;;;4.50;1.02;;;;;;;;;;4899318;29;20431;-87
2022/06/09 08:15:43;;;;;;;5.30;1.50;;;;;;;;;;4910621;29;20050;-86
2022/06/09 08:18:09;;;;;;;10.05;1.58;;;;;;;;;;4905602;29;20039;-87
2022/06/09 08:20:37;;;;;;;6.60;1.48;;;;;;;;;;4900592;29;20433;-87
2022/06/09 08:23:05;;;;;;;10.73;1.40;;;;;;;;;;4896761;29;20039;-87
2022/06/09 08:25:32;;;;;;;6.88;1.42;;;;;;;;;;4893993;29;20021;-87
2022/06/09 08:27:58;;;;;;;6.68;1.40;;;;;;;;;;4896742;29;20025;-88
2022/06/09 08:30:25;;;;;;;7.65;1.55;;;;;;;;;;4904132;29;20054;-88
2022/06/09 08:32:51;;;;;;;7.47;1.60;;;;;;;;;;4905015;29;20511;-87
2022/06/09 08:35:18;;;;;;;7.68;1.45;;;;;;;;;;4899436;29;20047;-87
2022/06/09 08:37:48;;;;;;;7.65;1.05;;;;;;;;;;4893858;29;20062;-87
2022/06/09 08:40:18;;;;;;;4.93;1.60;;;;;;;;;;4898034;29;20052;-87
2022/06/09 08:43:04;;;;;;;5.10;1.63;;;;;;;;;;4891465;29;20532;-87
2022/06/09 08:45:38;;;;;;;8.30;1.42;;;;;;;;;;4898418;29;20084;-87
2022/06/09 08:48:05;;;;;;;8.68;1.48;;;;;;;;;;4897640;29;20047;-87
2022/06/09 08:50:37;;;;;;;7.45;1.70;;;;;;;;;;4899457;29;20027;-87
2022/06/09 08:53:12;;;;;;;9.20;1.38;;;;;;;;;;4885963;29;20039;-84
2022/06/09 08:56:00;;;;;;;6.10;1.65;;;;;;;;;;4894163;29;20055;-80
2022/06/09 08:58:44;;;;;;;8.30;1.60;;;;;;;;;;4898877;29;20028;-80
2022/06/09 09:01:11;;;;;;;5.80;1.17;;;;;;;;;;4899632;29;20044;-79
2022/06/09 09:03:47;;;;;;;4.70;1.40;;;;;;;;;;4899567;29;20028;-79
2022/06/09 09:06:13;;;;;;;8.02;1.40;;;;;;;;;;4899842;29;20021;-79
2022/06/09 09:08:39;;;;;;;9.10;1.65;;;;;;;;;;4899044;29;20560;-79
2022/06/09 09:11:15;;;;;;;6.93;1.50;;;;;;;;;;4897099;29;20020;-79
2022/06/09 09:13:44;;;;;;;8.95;1.90;;;;;;;;;;4896405;29;20512;-80
2022/06/09 09:16:10;;;;;;;6.88;1.52;;;;;;;;;;4900593;29;20091;-80
2022/06/09 09:18:40;;;;;;;6.57;1.77;;;;;;;;;;4914402;29;20025;-80
2022/06/09 09:21:06;;;;;;;5.13;1.58;;;;;;;;;;4899609;29;20041;-80
2022/06/09 09:23:39;;;;;;;6.82;1.35;;;;;;;;;;4899391;29;20043;-80
2022/06/09 09:26:18;;;;;;;8.15;1.77;;;;;;;;;;4895645;29;20029;-81
2022/06/09 09:28:47;;;;;;;6.22;1.80;;;;;;;;;;4898090;29;20017;-80
2022/06/09 09:31:26;;;;;;;6.68;1.40;;;;;;;;;;4899795;29;20506;-80
2022/06/09 09:33:53;;;;;;;7.90;1.42;;;;;;;;;;4910091;29;20043;-81
2022/06/09 09:36:24;;;;;;;5.07;1.45;;;;;;;;;;4898104;29;20051;-78
2022/06/09 09:38:53;;;;;;;5.00;1.38;;;;;;;;;;4895205;29;20044;-79
2022/06/09 09:41:34;;;;;;;5.75;1.55;;;;;;;;;;4901443;29;20036;-78
2022/06/09 09:44:11;;;;;;;4.28;1.30;;;;;;;;;;4897316;29;20027;-78
2022/06/09 09:46:38;;;;;;;5.90;1.70;;;;;;;;;;4899051;29;20402;-78
2022/06/09 09:49:15;;;;;;;5.20;1.60;;;;;;;;;;4900044;29;20494;-78
2022/06/09 09:51:43;;;;;;;4.90;1.35;;;;;;;;;;4908565;29;20099;-77
2022/06/09 09:54:17;;;;;;;5.47;1.73;;;;;;;;;;4903845;29;20042;-80
2022/06/09 09:56:43;;;;;;;4.68;1.60;;;;;;;;;;4899958;29;20028;-78
2022/06/09 09:59:21;;;;;;;11.40;1.38;;;;;;;;;;4894760;29;20048;-78
2022/06/09 10:10:13;;;;;;;10.65;1.77;;;;;;;;;;4899982;29;20033;-78
2022/06/09 10:12:40;;;;;;;4.30;1.30;;;;;;;;;;4899998;29;20049;-79
2022/06/09 10:15:06;;;;;;;5.85;1.30;;;;;;;;;;4899766;29;20419;-78
2022/06/09 10:17:43;;;;;;;5.35;1.60;;;;;;;;;;4900076;29;20043;-79
2022/06/09 10:20:19;;;;;;;7.22;2.50;;;;;;;;;;4898537;29;20020;-78
2022/06/09 10:22:55;;;;;;;6.55;1.73;;;;;;;;;;4880501;29;20425;-79
2022/06/09 10:25:31;;;;;;;5.85;1.38;;;;;;;;;;4908155;29;20043;-78
2022/06/09 10:28:04;;;;;;;8.35;1.40;;;;;;;;;;4898065;29;20036;-78
2022/06/09 10:30:36;;;;;;;6.18;0.98;;;;;;;;;;4890876;29;20036;-78
2022/06/09 10:33:10;;;;;;;4.53;1.67;;;;;;;;;;4890997;29;20025;-78
2022/06/09 10:35:42;;;;;;;4.60;1.35;;;;;;;;;;4892491;29;20060;-78
2022/06/09 10:38:14;;;;;;;7.95;1.90;;;;;;;;;;4895420;29;20047;-78
2022/06/09 10:40:44;;;;;;;8.75;1.80;;;;;;;;;;4895450;29;20044;-79
2022/06/09 10:43:13;;;;;;;6.30;1.38;;;;;;;;;;4899809;29;20024;-78
2022/06/09 10:45:58;;;;;;;4.03;1.23;;;;;;;;;;4899609;29;20506;-78
2022/06/09 10:57:12;;;;;;;6.50;1.50;;;;;;;;;;4890726;29;20047;-79
2022/06/09 10:59:41;;;;;;;5.20;1.15;;;;;;;;;;4829674;29;20039;-77
2022/06/09 11:02:22;;;;;;;4.30;1.25;;;;;;;;;;4833271;29;20045;-78
2022/06/09 11:04:49;;;;;;;8.90;1.48;;;;;;;;;;4831464;29;20045;-78
2022/06/09 11:07:28;;;;;;;6.25;1.40;;;;;;;;;;4829906;29;20074;-77
2022/06/09 11:09:57;;;;;;;7.45;1.23;;;;;;;;;;4838928;29;20542;-78
2022/06/09 11:12:26;;;;;;;6.68;1.48;;;;;;;;;;4839090;29;20030;-80
2022/06/09 11:15:02;;;;;;;7.00;1.75;;;;;;;;;;4832461;29;20038;-76
2022/06/09 11:17:31;;;;;;;6.22;1.70;;;;;;;;;;4830296;29;20045;-78
2022/06/09 11:20:12;;;;;;;7.63;1.80;;;;;;;;;;4839314;29;20026;-80
2022/06/09 11:22:57;;;;;;;7.53;2.05;;;;;;;;;;4839537;29;20042;-81
2022/06/09 11:25:42;;;;;;;9.95;1.73;;;;;;;;;;4836456;29;20034;-80
2022/06/09 11:28:27;;;;;;;10.95;1.90;;;;;;;;;;4839341;29;20034;-78
2022/06/09 11:31:05;;;;;;;6.25;1.58;;;;;;;;;;4839012;29;20048;-79
2022/06/09 11:33:44;;;;;;;6.97;1.50;;;;;;;;;;4838658;29;20038;-77
2022/06/09 11:36:28;;;;;;;8.10;1.50;;;;;;;;;;4848135;29;20537;-78
2022/06/09 11:38:57;;;;;;;7.97;1.35;;;;;;;;;;4898929;29;20056;-79
2022/06/09 11:41:30;;;;;;;4.57;1.23;;;;;;;;;;4900515;29;20074;-78
2022/06/09 11:43:59;;;;;;;9.20;1.60;;;;;;;;;;4898687;29;20059;-78
2022/06/09 11:46:28;;;;;;;3.70;1.40;;;;;;;;;;4899703;29;20036;-79
2022/06/09 11:48:59;;;;;;;5.28;1.60;;;;;;;;;;4901066;29;20502;-78
2022/06/09 11:51:28;;;;;;;3.42;1.20;;;;;;;;;;4901024;29;20047;-80
2022/06/09 11:53:58;;;;;;;6.82;1.73;;;;;;;;;;4901395;29;20096;-79
2022/06/09 11:56:43;;;;;;;10.85;1.38;;;;;;;;;;4902095;29;20034;-79
2022/06/09 11:59:12;;;;;;;5.93;1.40;;;;;;;;;;4900334;29;20028;-80
2022/06/09 12:01:39;;;;;;;9.10;1.48;;;;;;;;;;4898597;29;20056;-79
2022/06/09 12:04:08;;;;;;;10.60;1.38;;;;;;;;;;4902021;29;20024;-79
2022/06/09 12:06:44;;;;;;;8.37;1.70;;;;;;;;;;4916618;29;20039;-80
2022/06/09 12:09:40;;;;;;;6.05;1.45;;;;;;;;;;4901797;29;20280;-80
2022/06/09 12:12:25;;;;;;;3.15;1.23;;;;;;;;;;4824135;29;20034;-82
2022/06/09 12:15:08;;;;;;;4.05;1.20;;;;;;;;;;4838907;29;20039;-83
2022/06/09 12:17:35;;;;;;;5.28;1.20;;;;;;;;;;4823486;29;20036;-80
2022/06/09 12:20:07;;;;;;;4.78;1.20;;;;;;;;;;4839798;29;20026;-81
2022/06/09 12:22:47;;;;;;;7.80;1.45;;;;;;;;;;4839562;29;20412;-80
2022/06/09 12:25:17;;;;;;;6.25;1.23;;;;;;;;;;4840036;29;20108;-80
2022/06/09 12:27:48;;;;;;;8.70;1.30;;;;;;;;;;4833816;29;20141;-80
2022/06/09 12:30:31;;;;;;;6.28;1.38;;;;;;;;;;4829398;29;20507;-80
2022/06/09 12:33:12;;;;;;;8.75;1.30;;;;;;;;;;4833203;29;20499;-80
2022/06/09 12:35:46;;;;;;;5.57;1.70;;;;;;;;;;4835832;29;20050;-83
2022/06/09 12:38:27;;;;;;;8.32;1.40;;;;;;;;;;4827954;29;20042;-82
2022/06/09 12:40:56;;;;;;;9.65;1.15;;;;;;;;;;4829785;29;20049;-80
2022/06/09 12:43:26;;;;;;;5.65;1.13;;;;;;;;;;4839318;29;20045;-81
2022/06/09 12:46:11;;;;;;;14.47;2.13;;;;;;;;;;4838011;29;20030;-80
2022/06/09 12:48:37;;;;;;;4.95;1.50;;;;;;;;;;4879798;29;20040;-80
2022/06/09 12:51:08;;;;;;;5.35;1.17;;;;;;;;;;4907793;29;20043;-80
2022/06/09 12:53:35;;;;;;;4.57;1.30;;;;;;;;;;4909667;29;20035;-81
2022/06/09 12:56:05;;;;;;;5.20;1.40;;;;;;;;;;4898452;29;20017;-80
2022/06/09 12:58:42;;;;;;;5.90;1.10;;;;;;;;;;4899093;29;20355;-80
2022/06/09 13:01:17;;;;;;;4.22;1.10;;;;;;;;;;4900237;29;20051;-82
2022/06/09 13:03:49;;;;;;;7.85;1.17;;;;;;;;;;4909032;29;20055;-80
2022/06/09 13:06:24;;;;;;;4.75;1.10;;;;;;;;;;4904215;29;20025;-80
2022/06/09 13:08:53;;;;;;;6.22;1.30;;;;;;;;;;4901020;29;20028;-80
2022/06/09 13:12:50;;;;;;;6.57;1.25;;;;;;;;;;4899105;29;20036;-81
2022/06/09 13:14:08;;;;;;;7.28;1.58;;;;;;;;;;4886894;29;20043;-81
2022/06/09 13:16:39;;;;;;;4.70;1.20;;;;;;;;;;4896014;29;20545;-79
2022/06/09 13:19:07;;;;;;;7.68;1.33;;;;;;;;;;4901019;29;20375;-80
2022/06/09 13:21:36;;;;;;;6.80;1.30;;;;;;;;;;4900391;29;20044;-80
2022/06/09 13:24:03;;;;;;;11.13;1.45;;;;;;;;;;4900047;29;20029;-80
2022/06/09 13:26:36;;;;;;;7.20;1.42;;;;;;;;;;4900686;29;20032;-80
2022/06/09 13:29:06;;;;;;;3.72;1.10;;;;;;;;;;4896959;29;20036;-80
2022/06/09 13:31:38;;;;;;;5.95;1.30;;;;;;;;;;4897913;29;20029;-81
2022/06/09 13:34:05;;;;;;;6.05;1.15;;;;;;;;;;4900666;29;20482;-79
2022/06/09 13:36:31;;;;;;;4.97;1.20;;;;;;;;;;4899931;29;20044;-80
2022/06/09 13:38:58;;;;;;;7.75;1.60;;;;;;;;;;4899941;29;20422;-80
2022/06/09 13:41:33;;;;;;;6.43;1.50;;;;;;;;;;4900041;29;20040;-80
2022/06/09 13:44:07;;;;;;;5.57;1.13;;;;;;;;;;4895683;29;20028;-80
2022/06/09 13:46:39;;;;;;;4.53;1.20;;;;;;;;;;4894771;29;20498;-81
2022/06/09 13:49:20;;;;;;;4.65;1.48;;;;;;;;;;4900605;29;20393;-80
2022/06/09 13:52:03;;;;;;;6.57;1.38;;;;;;;;;;4900024;29;20720;-81
2022/06/09 13:54:32;;;;;;;4.63;1.15;;;;;;;;;;4898459;29;20043;-79
2022/06/09 13:56:59;;;;;;;3.40;1.20;;;;;;;;;;4897820;29;20038;-79
2022/06/09 13:59:26;;;;;;;5.20;0.93;;;;;;;;;;4908395;29;20420;-79
2022/06/09 14:01:55;;;;;;;7.75;1.45;;;;;;;;;;4895793;29;20032;-80
2022/06/09 14:04:40;;;;;;;3.15;1.10;;;;;;;;;;4903559;29;20029;-80
2022/06/09 14:07:06;;;;;;;5.47;1.40;;;;;;;;;;4900778;29;20030;-80
2022/06/09 14:09:33;;;;;;;6.53;1.23;;;;;;;;;;4898841;29;20516;-80
2022/06/09 14:12:03;;;;;;;10.13;1.20;;;;;;;;;;4899963;29;20079;-80
2022/06/09 14:14:29;;;;;;;5.05;1.10;;;;;;;;;;4898884;29;20025;-80
2022/06/09 14:16:55;;;;;;;5.53;1.45;;;;;;;;;;4896130;29;20024;-80
2022/06/09 14:19:22;;;;;;;3.92;1.15;;;;;;;;;;4898489;29;20028;-80
2022/06/09 14:21:48;;;;;;;5.95;1.38;;;;;;;;;;4900027;29;20494;-80
2022/06/09 14:24:19;;;;;;;3.53;1.25;;;;;;;;;;4899803;29;20031;-80
2022/06/09 14:26:47;;;;;;;5.85;1.13;;;;;;;;;;4898473;29;20075;-80
2022/06/09 14:29:15;;;;;;;6.75;1.20;;;;;;;;;;4898455;29;20032;-80
2022/06/09 14:31:42;;;;;;;5.53;1.38;;;;;;;;;;4896211;29;20064;-80
2022/06/09 14:34:09;;;;;;;9.85;1.40;;;;;;;;;;4898606;29;20047;-80
2022/06/09 14:36:35;;;;;;;7.30;1.42;;;;;;;;;;4901760;29;20493;-80
2022/06/09 14:39:05;;;;;;;8.40;1.45;;;;;;;;;;4903172;29;20040;-79
2022/06/09 14:41:31;;;;;;;7.90;1.30;;;;;;;;;;4901841;29;20044;-80
2022/06/09 14:43:58;;;;;;;7.60;1.63;;;;;;;;;;4905939;29;20039;-80
2022/06/09 14:46:28;;;;;;;7.35;1.42;;;;;;;;;;4902130;29;20033;-80
2022/06/09 14:48:55;;;;;;;;;;;;;;;;;;4902611;29;20430;-80
2022/06/09 14:51:21;;;;;;;8.88;1.55;;;;;;;;;;4902635;29;19907;-80
2022/06/09 14:53:48;;;;;;;6.25;1.20;;;;;;;;;;4901608;29;20037;-81
2022/06/09 14:56:16;;;;;;;6.53;1.15;;;;;;;;;;4902053;29;20028;-80
2022/06/09 14:58:44;;;;;;;6.53;1.35;;;;;;;;;;4895313;29;20028;-81
2022/06/09 15:01:17;;;;;;;8.82;1.70;;;;;;;;;;4900412;29;20040;-80
2022/06/09 15:03:44;;;;;;;7.53;1.50;;;;;;;;;;4902922;29;20100;-80
2022/06/09 15:06:16;;;;;;;10.25;1.20;;;;;;;;;;4917835;29;20028;-80
2022/06/09 15:08:43;;;;;;;11.02;1.40;;;;;;;;;;4901618;29;20029;-80
2022/06/09 15:11:09;;;;;;;6.13;1.50;;;;;;;;;;4900919;29;20028;-80
2022/06/09 15:13:35;;;;;;;7.35;1.58;;;;;;;;;;4899646;29;20028;-80
2022/06/09 15:16:04;;;;;;;6.78;1.60;;;;;;;;;;4902606;29;20028;-80
2022/06/09 15:18:31;;;;;;;6.88;1.40;;;;;;;;;;4902860;29;20032;-80